Time;durP1;ratioP1;P1;durP2;ratioP2;P2;SDS_P1;SDS_P2;PMS_P1;PMS_P2;Temp;Humidity;BMP_temperature;BMP_pressure;BME280_temperature;BME280_humidity;BME280_pressure;Samples;Min_cycle;Max_cycle;Signal;HPM_P1;HPM_P2
2022/05/09 00:02:12;;;;;;;8.95;3.72;;;9.50;82.70;;;;;;5114932;28;20023;-50
2022/05/09 00:04:38;;;;;;;7.88;3.63;;;9.50;83.00;;;;;;5113221;28;20027;-55
2022/05/09 00:07:05;;;;;;;10.13;3.92;;;9.40;83.10;;;;;;5094230;28;20036;-54
2022/05/09 00:09:31;;;;;;;8.88;3.95;;;9.40;83.10;;;;;;5094171;28;20032;-56
2022/05/09 00:11:57;;;;;;;11.63;4.03;;;9.30;83.40;;;;;;5094116;28;20027;-59
2022/05/09 00:14:22;;;;;;;10.15;4.32;;;9.30;83.60;;;;;;5092897;28;20032;-42
2022/05/09 00:16:51;;;;;;;12.73;4.15;;;9.30;83.90;;;;;;5094297;28;20024;-60
2022/05/09 00:19:20;;;;;;;14.73;4.13;;;9.30;83.70;;;;;;5094060;28;20032;-55
2022/05/09 00:21:47;;;;;;;12.27;4.30;;;9.20;83.90;;;;;;5094050;28;20393;-54
2022/05/09 00:24:15;;;;;;;11.82;4.15;;;9.20;84.40;;;;;;5093982;28;20039;-56
2022/05/09 00:26:48;;;;;;;10.75;4.05;;;9.10;84.40;;;;;;5093997;28;20020;-59
2022/05/09 00:29:15;;;;;;;10.88;4.10;;;9.10;84.80;;;;;;5092685;28;20066;-58
2022/05/09 00:31:43;;;;;;;15.02;4.15;;;9.00;85.20;;;;;;5093869;28;20551;-43
2022/05/09 00:34:10;;;;;;;9.63;4.60;;;9.00;85.30;;;;;;5093750;28;20504;-52
2022/05/09 00:36:37;;;;;;;12.80;4.22;;;9.00;85.50;;;;;;5109776;28;20030;-57
2022/05/09 00:39:03;;;;;;;14.10;4.78;;;9.00;85.40;;;;;;5114075;28;20035;-44
2022/05/09 00:41:34;;;;;;;11.05;4.60;;;8.90;85.50;;;;;;5114020;28;20028;-53
2022/05/09 00:44:03;;;;;;;10.48;5.00;;;8.90;85.50;;;;;;5114010;28;20036;-56
2022/05/09 00:46:30;;;;;;;11.32;4.80;;;8.90;86.00;;;;;;5114087;28;20068;-55
2022/05/09 00:49:02;;;;;;;16.52;4.95;;;8.90;86.00;;;;;;5113827;28;20024;-48
2022/05/09 00:51:29;;;;;;;12.25;4.78;;;8.90;85.90;;;;;;5113934;28;20080;-55
2022/05/09 00:53:58;;;;;;;9.63;4.30;;;8.90;85.80;;;;;;5113580;28;20042;-52
2022/05/09 00:56:29;;;;;;;12.00;4.45;;;8.90;86.10;;;;;;5112074;28;20083;-49
2022/05/09 00:58:58;;;;;;;9.30;4.35;;;8.80;86.30;;;;;;5113781;28;20022;-52
2022/05/09 01:01:24;;;;;;;11.98;5.63;;;8.80;86.60;;;;;;5113764;28;20019;-46
2022/05/09 01:04:10;;;;;;;9.50;4.07;;;8.70;86.90;;;;;;5112427;28;20077;-58
2022/05/09 01:06:36;;;;;;;7.32;3.88;;;8.70;84.50;;;;;;5095937;28;20036;-61
2022/05/09 01:09:03;;;;;;;8.13;4.03;;;8.60;84.90;;;;;;5093315;28;20036;-59
2022/05/09 01:11:29;;;;;;;12.05;4.47;;;8.40;85.40;;;;;;5092956;28;20488;-52
2022/05/09 01:14:11;;;;;;;9.63;4.10;;;8.40;86.20;;;;;;5093010;28;20040;-55
2022/05/09 01:16:38;;;;;;;11.60;4.55;;;8.30;87.10;;;;;;5092991;28;20035;-59
2022/05/09 01:19:41;;;;;;;11.05;4.30;;;8.30;87.10;;;;;;5092958;28;20617;-59
2022/05/09 01:22:30;;;;;;;7.75;4.03;;;8.30;87.20;;;;;;5069610;28;20038;-52
2022/05/09 01:25:02;;;;;;;11.97;4.07;;;8.40;87.30;;;;;;5092781;28;20199;-54
2022/05/09 01:27:29;;;;;;;8.90;4.25;;;8.40;87.20;;;;;;5092793;28;20756;-60
2022/05/09 01:30:16;;;;;;;8.18;4.60;;;8.30;87.10;;;;;;5091394;28;20042;-60
2022/05/09 01:32:47;;;;;;;11.75;4.53;;;8.20;87.30;;;;;;5091155;28;20135;-56
2022/05/09 01:35:16;;;;;;;10.02;4.30;;;8.20;87.80;;;;;;5100541;28;20625;-60
2022/05/09 01:37:47;;;;;;;14.63;4.85;;;8.30;88.20;;;;;;5112884;28;20396;-55
2022/05/09 01:40:13;;;;;;;7.15;4.25;;;8.30;88.20;;;;;;5113041;28;20028;-45
2022/05/09 01:42:43;;;;;;;9.93;4.60;;;8.30;88.30;;;;;;5112912;28;20036;-55
2022/05/09 01:45:10;;;;;;;11.13;4.15;;;8.20;88.30;;;;;;5103221;28;20032;-51
2022/05/09 01:50:20;;;;;;;10.43;4.70;;;8.20;88.50;;;;;;5072092;28;20036;-53
2022/05/09 01:52:46;;;;;;;10.18;4.53;;;8.20;88.20;;;;;;5072143;28;20405;-52
2022/05/09 01:55:12;;;;;;;11.70;4.50;;;8.20;88.10;;;;;;5072073;28;20028;-55
2022/05/09 01:57:38;;;;;;;8.73;4.50;;;8.10;88.40;;;;;;5072103;28;20496;-61
2022/05/09 02:00:05;;;;;;;9.13;4.50;;;8.10;88.50;;;;;;5071903;28;20104;-56
2022/05/09 02:02:31;;;;;;;11.00;4.30;;;8.10;88.40;;;;;;5071752;28;20504;-48
2022/05/09 02:04:57;;;;;;;10.50;3.83;;;8.10;88.50;;;;;;5083503;28;20035;-54
2022/05/09 02:07:23;;;;;;;8.70;4.00;;;8.10;88.20;;;;;;5112126;28;20027;-51
2022/05/09 02:09:49;;;;;;;8.73;4.10;;;8.10;88.30;;;;;;5112391;28;20031;-56
2022/05/09 02:12:17;;;;;;;9.20;4.30;;;8.00;88.50;;;;;;5112249;28;20031;-54
2022/05/09 02:14:43;;;;;;;10.05;4.55;;;8.00;88.50;;;;;;5110963;28;20118;-49
2022/05/09 02:17:11;;;;;;;7.47;4.07;;;8.00;88.30;;;;;;5112384;28;20107;-53
2022/05/09 02:19:37;;;;;;;8.38;4.32;;;8.00;88.90;;;;;;5112327;28;20030;-52
2022/05/09 02:22:03;;;;;;;9.63;4.13;;;8.00;87.40;;;;;;5112152;28;20030;-51
2022/05/09 02:24:29;;;;;;;8.43;3.78;;;8.00;87.10;;;;;;5112135;28;20088;-44
2022/05/09 02:26:56;;;;;;;11.90;4.15;;;7.90;87.80;;;;;;5112175;28;20410;-51
2022/05/09 02:29:22;;;;;;;6.78;4.00;;;7.80;88.00;;;;;;5112006;28;20019;-58
2022/05/09 02:31:48;;;;;;;7.72;4.40;;;7.80;86.90;;;;;;5111872;28;20034;-42
2022/05/09 02:34:14;;;;;;;8.85;4.20;;;7.70;88.40;;;;;;5111960;28;20032;-60
2022/05/09 02:36:40;;;;;;;10.50;4.68;;;7.60;88.70;;;;;;5111080;28;20027;-47
2022/05/09 02:39:06;;;;;;;10.43;4.85;;;7.60;89.20;;;;;;5112059;28;20019;-60
2022/05/09 02:41:31;;;;;;;9.45;4.38;;;7.60;90.00;;;;;;5111859;28;20108;-44
2022/05/09 02:43:57;;;;;;;14.43;5.32;;;7.70;90.10;;;;;;5111682;28;20031;-53
2022/05/09 02:46:23;;;;;;;7.63;4.13;;;7.70;89.70;;;;;;5111803;28;20044;-54
2022/05/09 02:48:49;;;;;;;11.48;4.32;;;7.70;89.50;;;;;;5111758;28;20057;-57
2022/05/09 02:51:15;;;;;;;10.50;4.75;;;7.80;89.20;;;;;;5111568;28;20384;-48
2022/05/09 02:53:41;;;;;;;10.10;4.50;;;7.70;88.60;;;;;;5110027;28;20038;-56
2022/05/09 02:56:07;;;;;;;8.10;3.83;;;7.70;88.30;;;;;;5111606;28;20027;-38
2022/05/09 02:58:33;;;;;;;10.13;4.07;;;7.70;88.40;;;;;;5111575;28;20094;-38
2022/05/09 03:00:59;;;;;;;8.23;3.65;;;7.70;88.00;;;;;;5111561;28;20369;-45
2022/05/09 03:06:09;;;;;;;7.35;3.50;;;7.60;86.70;;;;;;5095700;28;20046;-40
2022/05/09 03:08:35;;;;;;;9.20;3.97;;;7.60;86.50;;;;;;5091154;28;20024;-43
2022/05/09 03:11:01;;;;;;;7.50;3.75;;;7.50;86.40;;;;;;5091061;28;20115;-45
2022/05/09 03:13:27;;;;;;;6.78;3.53;;;7.40;86.60;;;;;;5091027;28;20038;-38
2022/05/09 03:15:52;;;;;;;7.45;3.55;;;7.40;86.60;;;;;;5091042;28;20492;-40
2022/05/09 03:18:23;;;;;;;9.95;3.75;;;7.30;87.00;;;;;;5092459;28;20028;-41
2022/05/09 03:20:49;;;;;;;6.78;3.65;;;7.20;87.20;;;;;;5095091;28;20177;-41
2022/05/09 03:23:15;;;;;;;8.02;3.83;;;7.20;87.60;;;;;;5095135;28;20031;-41
2022/05/09 03:25:41;;;;;;;6.05;3.53;;;7.20;87.70;;;;;;5094903;28;20024;-46
2022/05/09 03:28:10;;;;;;;9.18;4.50;;;7.20;87.50;;;;;;5095348;28;20062;-56
2022/05/09 03:30:38;;;;;;;7.90;4.00;;;7.10;87.60;;;;;;5095177;28;20030;-46
2022/05/09 03:33:04;;;;;;;10.73;4.45;;;7.10;88.00;;;;;;5094713;28;20520;-58
2022/05/09 03:35:30;;;;;;;10.93;4.57;;;7.10;88.30;;;;;;5104457;28;20449;-60
2022/05/09 03:37:56;;;;;;;10.35;4.80;;;7.10;88.40;;;;;;5115159;28;20104;-43
2022/05/09 03:40:22;;;;;;;10.68;4.63;;;7.10;88.80;;;;;;5115287;28;20448;-48
2022/05/09 03:42:48;;;;;;;12.90;4.57;;;7.10;89.50;;;;;;5113888;28;20143;-38
2022/05/09 03:45:15;;;;;;;10.40;4.47;;;7.10;89.40;;;;;;5115159;27;20438;-46
2022/05/09 03:47:41;;;;;;;7.65;4.47;;;7.20;89.10;;;;;;5113887;28;20023;-54
2022/05/09 03:50:08;;;;;;;9.35;4.50;;;7.20;89.00;;;;;;5115112;28;20123;-51
2022/05/09 03:52:34;;;;;;;7.95;4.10;;;7.10;88.70;;;;;;5113457;28;20409;-55
2022/05/09 03:55:00;;;;;;;7.28;4.47;;;7.10;88.90;;;;;;5114961;28;20015;-58
2022/05/09 03:57:26;;;;;;;6.28;3.63;;;7.10;89.10;;;;;;5115137;28;20023;-56
2022/05/09 03:59:51;;;;;;;7.85;3.97;;;7.00;89.00;;;;;;5113555;28;20396;-50
2022/05/09 04:02:17;;;;;;;7.90;3.88;;;6.90;88.20;;;;;;5114868;28;20480;-52
2022/05/09 04:04:43;;;;;;;7.43;3.88;;;6.90;88.20;;;;;;5110248;28;20178;-49
2022/05/09 04:07:09;;;;;;;4.82;3.55;;;6.90;88.30;;;;;;5113822;28;20035;-57
2022/05/09 04:09:36;;;;;;;11.73;4.22;;;6.80;88.40;;;;;;5114715;28;20027;-56
2022/05/09 04:12:02;;;;;;;9.07;4.65;;;6.80;89.30;;;;;;5114572;28;20012;-56
2022/05/09 04:17:14;;;;;;;10.65;4.72;;;6.80;90.70;;;;;;5114861;28;20034;-55
2022/05/09 04:19:41;;;;;;;12.35;5.38;;;6.80;90.60;;;;;;5114520;28;20094;-54
2022/05/09 04:22:07;;;;;;;9.43;4.90;;;6.80;90.60;;;;;;5114626;27;20027;-57
2022/05/09 04:24:33;;;;;;;9.32;4.50;;;6.80;90.40;;;;;;5114425;27;20019;-56
2022/05/09 04:27:00;;;;;;;9.15;4.70;;;6.90;90.40;;;;;;5113155;28;20020;-52
2022/05/09 04:29:26;;;;;;;7.55;4.75;;;6.90;90.30;;;;;;5114218;28;20019;-53
2022/05/09 04:31:52;;;;;;;8.65;4.47;;;7.00;90.10;;;;;;5114137;28;20102;-44
2022/05/09 04:34:18;;;;;;;10.40;5.15;;;7.00;90.40;;;;;;5111952;28;20123;-57
2022/05/09 04:36:44;;;;;;;10.55;5.30;;;7.00;91.00;;;;;;5094039;28;20028;-44
2022/05/09 04:39:10;;;;;;;10.77;5.20;;;7.00;90.70;;;;;;5093970;28;20024;-50
2022/05/09 04:41:36;;;;;;;12.05;5.50;;;7.00;90.80;;;;;;5093773;28;20024;-47
2022/05/09 04:44:05;;;;;;;10.93;4.95;;;7.10;90.90;;;;;;5093776;28;20032;-52
2022/05/09 04:46:31;;;;;;;9.03;4.87;;;7.10;90.80;;;;;;5093661;28;20484;-48
2022/05/09 04:48:57;;;;;;;10.38;4.80;;;7.00;90.50;;;;;;5093291;28;20091;-55
2022/05/09 04:51:22;;;;;;;10.60;5.20;;;7.10;90.60;;;;;;5093490;28;20111;-55
2022/05/09 04:53:49;;;;;;;10.77;5.50;;;7.10;90.80;;;;;;5093333;28;20040;-57
2022/05/09 04:56:16;;;;;;;11.13;5.18;;;7.20;90.70;;;;;;5093505;28;20165;-56
2022/05/09 04:58:42;;;;;;;9.80;5.50;;;7.20;91.00;;;;;;5094498;28;20024;-58
2022/05/09 05:01:08;;;;;;;11.20;5.40;;;7.30;91.00;;;;;;5113631;28;20038;-53
2022/05/09 05:03:34;;;;;;;12.20;5.38;;;7.40;91.00;;;;;;5113703;28;20073;-49
2022/05/09 05:05:59;;;;;;;9.52;5.05;;;7.40;91.00;;;;;;5113672;28;20027;-58
2022/05/09 05:08:27;;;;;;;11.70;5.15;;;7.50;91.00;;;;;;5113626;28;20082;-49
2022/05/09 05:10:54;;;;;;;10.65;5.03;;;7.50;91.10;;;;;;5113670;27;20034;-51
2022/05/09 05:13:20;;;;;;;9.07;5.00;;;7.60;91.00;;;;;;5113383;28;20034;-50
2022/05/09 05:15:48;;;;;;;11.15;4.97;;;7.70;90.90;;;;;;5107670;28;20681;-57
2022/05/09 05:18:18;;;;;;;14.35;5.65;;;7.80;90.70;;;;;;5085794;28;20028;-56
2022/05/09 05:20:43;;;;;;;9.23;5.30;;;7.80;90.50;;;;;;5085408;28;20119;-58
2022/05/09 05:23:10;;;;;;;10.95;5.18;;;7.90;90.60;;;;;;5076433;28;20461;-59
2022/05/09 05:25:35;;;;;;;12.57;4.57;;;8.00;90.70;;;;;;5084696;28;20020;-56
2022/05/09 05:28:01;;;;;;;11.60;5.65;;;8.10;90.60;;;;;;5091829;28;20073;-41
2022/05/09 05:30:27;;;;;;;12.07;5.65;;;8.20;90.70;;;;;;5088420;28;20081;-54
2022/05/09 05:32:55;;;;;;;10.43;5.07;;;8.20;90.50;;;;;;5079052;28;20048;-59
2022/05/09 05:35:23;;;;;;;7.45;4.70;;;8.30;90.50;;;;;;5092804;28;20077;-47
2022/05/09 05:37:49;;;;;;;9.70;5.38;;;8.40;90.30;;;;;;5082233;28;20067;-58
2022/05/09 05:40:17;;;;;;;9.43;4.60;;;8.50;90.00;;;;;;5094239;28;20104;-41
2022/05/09 05:42:45;;;;;;;9.35;4.68;;;8.70;89.80;;;;;;5103647;28;20035;-47
2022/05/09 05:45:13;;;;;;;9.90;4.63;;;9.00;89.90;;;;;;5090515;28;20032;-43
2022/05/09 05:47:39;;;;;;;9.48;4.93;;;9.60;88.80;;;;;;5072252;28;20024;-52
2022/05/09 05:50:07;;;;;;;12.00;4.63;;;10.50;86.30;;;;;;5086462;28;20503;-49
2022/05/09 05:52:33;;;;;;;11.63;4.45;;;11.50;83.00;;;;;;5111268;28;20027;-58
2022/05/09 05:54:59;;;;;;;8.52;3.70;;;12.50;79.00;;;;;;5111465;28;20028;-53
2022/05/09 05:57:30;;;;;;;9.10;4.25;;;13.50;75.70;;;;;;5111249;28;20027;-54
2022/05/09 05:59:59;;;;;;;10.18;3.40;;;14.40;71.90;;;;;;5107544;28;20031;-41
2022/05/09 06:02:26;;;;;;;6.50;3.55;;;15.10;68.60;;;;;;5092224;28;20031;-45
2022/05/09 06:04:51;;;;;;;8.60;3.28;;;15.80;65.50;;;;;;5092132;28;20064;-50
2022/05/09 06:07:18;;;;;;;10.40;3.40;;;16.40;63.50;;;;;;5081799;28;20058;-48
2022/05/09 06:09:46;;;;;;;9.65;3.67;;;16.70;61.20;;;;;;5085733;28;20114;-39
2022/05/09 06:12:13;;;;;;;10.90;3.72;;;17.20;59.40;;;;;;5074249;28;20551;-49
2022/05/09 06:14:39;;;;;;;6.80;3.38;;;17.60;59.50;;;;;;5069505;28;20455;-45
2022/05/09 06:17:07;;;;;;;9.27;3.00;;;18.00;56.30;;;;;;5070387;28;20107;-47
2022/05/09 06:19:33;;;;;;;9.48;3.10;;;18.40;56.30;;;;;;5070324;28;20111;-50
2022/05/09 06:21:59;;;;;;;7.32;3.08;;;18.80;55.50;;;;;;5071260;28;20025;-51
2022/05/09 06:24:26;;;;;;;6.57;3.10;;;19.00;54.30;;;;;;5070148;28;20078;-50
2022/05/09 06:26:52;;;;;;;8.60;3.13;;;19.20;53.40;;;;;;5071031;28;20474;-50
2022/05/09 06:29:18;;;;;;;8.02;2.85;;;19.50;54.90;;;;;;5070344;28;20058;-46
2022/05/09 06:31:45;;;;;;;6.90;2.72;;;19.80;51.70;;;;;;5069607;28;20016;-51
2022/05/09 06:34:13;;;;;;;7.63;3.00;;;20.20;52.70;;;;;;5069586;28;20068;-50
2022/05/09 06:36:39;;;;;;;7.63;2.70;;;20.40;51.50;;;;;;5069902;28;20090;-56
2022/05/09 06:39:07;;;;;;;6.63;2.85;;;20.60;51.10;;;;;;5070879;28;20104;-51
2022/05/09 06:41:32;;;;;;;9.60;3.40;;;20.60;48.00;;;;;;5070925;28;20025;-47
2022/05/09 06:43:58;;;;;;;6.80;2.95;;;20.60;49.90;;;;;;5070967;28;20082;-57
2022/05/09 06:46:24;;;;;;;8.40;2.80;;;20.70;47.90;;;;;;5071391;28;20028;-52
2022/05/09 06:48:50;;;;;;;7.15;2.85;;;20.70;47.70;;;;;;5071283;28;20147;-52
2022/05/09 06:51:15;;;;;;;8.25;2.92;;;20.90;49.40;;;;;;5071245;28;20053;-47
2022/05/09 06:53:41;;;;;;;7.68;2.92;;;21.00;48.70;;;;;;5070105;28;20499;-52
2022/05/09 06:56:08;;;;;;;8.23;3.00;;;21.30;49.80;;;;;;5089197;28;20028;-56
2022/05/09 06:58:33;;;;;;;9.25;3.35;;;21.40;49.40;;;;;;5091432;28;20028;-45
2022/05/09 07:00:59;;;;;;;9.73;3.20;;;21.60;49.60;;;;;;5089561;28;20119;-62
2022/05/09 07:03:25;;;;;;;8.25;3.53;;;21.60;48.60;;;;;;5090696;28;20062;-55
2022/05/09 07:05:52;;;;;;;11.82;3.25;;;21.70;49.10;;;;;;5090731;28;20047;-54
2022/05/09 07:08:19;;;;;;;8.57;3.00;;;21.50;49.00;;;;;;5079008;28;20039;-51
2022/05/09 07:10:45;;;;;;;8.63;3.60;;;21.40;51.00;;;;;;5091057;28;20107;-55
2022/05/09 07:13:10;;;;;;;8.43;3.45;;;21.30;48.30;;;;;;5090380;28;20119;-55
2022/05/09 07:15:36;;;;;;;10.55;3.67;;;21.40;51.50;;;;;;5090959;28;20024;-51
2022/05/09 07:18:03;;;;;;;10.05;3.45;;;21.80;51.50;;;;;;5089888;28;20177;-56
2022/05/09 07:20:31;;;;;;;9.70;3.55;;;21.80;50.90;;;;;;5090838;28;20103;-45
2022/05/09 07:23:05;;;;;;;9.48;3.22;;;21.80;50.00;;;;;;5090999;28;20455;-53
2022/05/09 07:25:31;;;;;;;7.80;2.92;;;21.80;50.20;;;;;;5090983;28;20013;-44
2022/05/09 07:27:56;;;;;;;12.88;3.17;;;22.10;49.10;;;;;;5091166;28;20091;-49
2022/05/09 07:30:23;;;;;;;8.00;2.58;;;22.20;44.70;;;;;;5090834;28;20099;-43
2022/05/09 07:32:54;;;;;;;8.63;2.95;;;21.90;45.70;;;;;;5090742;28;20052;-40
2022/05/09 07:35:21;;;;;;;9.02;2.50;;;21.90;47.90;;;;;;5090743;28;20028;-47
2022/05/09 07:37:47;;;;;;;11.40;3.72;;;22.10;48.40;;;;;;5090790;28;20028;-53
2022/05/09 07:40:15;;;;;;;11.48;3.20;;;22.10;44.60;;;;;;5090931;28;20025;-53
2022/05/09 07:42:42;;;;;;;9.75;2.95;;;22.10;44.30;;;;;;5090616;28;20099;-54
2022/05/09 07:45:10;;;;;;;10.00;3.25;;;22.50;44.80;;;;;;5090471;28;20039;-57
2022/05/09 07:47:36;;;;;;;10.63;3.47;;;22.30;43.40;;;;;;5090626;28;20052;-50
2022/05/09 07:50:02;;;;;;;10.50;3.13;;;22.50;48.20;;;;;;5090639;28;20157;-48
2022/05/09 07:52:28;;;;;;;8.38;3.20;;;23.00;47.10;;;;;;5088835;28;20024;-52
2022/05/09 07:54:53;;;;;;;12.90;4.00;;;23.20;44.30;;;;;;5090987;28;20076;-59
2022/05/09 07:57:19;;;;;;;11.77;4.00;;;22.30;42.30;;;;;;5090756;28;20021;-48
2022/05/09 07:59:45;;;;;;;12.60;3.97;;;22.10;45.80;;;;;;5090731;28;20028;-52
2022/05/09 08:02:10;;;;;;;9.50;3.67;;;22.10;44.00;;;;;;5090479;28;20028;-49
2022/05/09 08:04:36;;;;;;;13.20;3.88;;;22.50;46.10;;;;;;5092274;28;20040;-56
2022/05/09 08:07:02;;;;;;;13.75;4.30;;;22.60;48.30;;;;;;5093271;28;20028;-44
2022/05/09 08:09:29;;;;;;;15.48;4.57;;;22.90;47.40;;;;;;5092374;28;20032;-52
2022/05/09 08:11:55;;;;;;;12.68;4.32;;;23.20;47.50;;;;;;5089094;28;20069;-59
2022/05/09 08:14:21;;;;;;;11.45;4.40;;;23.50;46.20;;;;;;5092868;28;20390;-52
2022/05/09 08:16:47;;;;;;;12.80;4.97;;;23.60;42.90;;;;;;5092851;28;20381;-50
2022/05/09 08:19:14;;;;;;;14.82;4.47;;;23.70;41.60;;;;;;5094043;28;20422;-57
2022/05/09 08:21:40;;;;;;;14.23;4.72;;;23.80;44.10;;;;;;5094385;28;20028;-49
2022/05/09 08:24:08;;;;;;;12.95;5.00;;;24.00;43.60;;;;;;5092473;28;20017;-59
2022/05/09 08:26:34;;;;;;;12.47;4.20;;;24.60;44.20;;;;;;5093846;28;20055;-54
2022/05/09 08:29:00;;;;;;;11.18;4.50;;;25.10;45.80;;;;;;5093907;28;20468;-57
2022/05/09 08:31:26;;;;;;;14.32;4.90;;;25.30;43.20;;;;;;5093857;28;20503;-53
2022/05/09 08:33:53;;;;;;;12.32;4.78;;;25.30;42.50;;;;;;5093344;28;20109;-42
2022/05/09 08:39:05;;;;;;;13.93;5.30;;;25.80;43.60;;;;;;5093688;28;20256;-47
2022/05/09 08:41:55;;;;;;;10.40;4.57;;;25.80;42.00;;;;;;5093296;28;20068;-50
2022/05/09 08:44:43;;;;;;;13.77;4.72;;;26.10;41.80;;;;;;5092944;28;20024;-51
2022/05/09 08:47:49;;;;;;;11.50;5.05;;;26.30;42.80;;;;;;5078754;28;20052;-50
2022/05/09 08:50:41;;;;;;;12.15;4.95;;;26.40;38.70;;;;;;5074810;28;20027;-52
2022/05/09 08:53:10;;;;;;;12.68;4.32;;;27.10;44.40;;;;;;5089605;28;20126;-48
2022/05/09 08:55:41;;;;;;;11.05;4.25;;;27.70;38.40;;;;;;5092837;28;20487;-51
2022/05/09 08:58:28;;;;;;;10.48;4.63;;;27.90;40.40;;;;;;5093382;28;20133;-58
2022/05/09 09:00:55;;;;;;;11.93;4.13;;;27.70;36.30;;;;;;5091644;28;20389;-46
2022/05/09 09:03:38;;;;;;;10.57;4.07;;;27.80;40.40;;;;;;5075286;28;20178;-48
2022/05/09 09:06:22;;;;;;;12.27;4.00;;;28.10;40.50;;;;;;5074937;28;20027;-49
2022/05/09 09:09:16;;;;;;;10.50;4.03;;;27.60;38.10;;;;;;5072980;28;20033;-53
2022/05/09 09:12:13;;;;;;;15.77;4.53;;;27.40;40.40;;;;;;5072967;28;20024;-54
2022/05/09 09:14:47;;;;;;;12.93;4.25;;;27.40;41.20;;;;;;5072833;28;20078;-56
2022/05/09 09:17:13;;;;;;;11.35;3.95;;;27.00;39.20;;;;;;5071899;28;20028;-54
2022/05/09 09:19:50;;;;;;;12.18;4.30;;;26.80;40.40;;;;;;5072601;28;20074;-58
2022/05/09 09:22:22;;;;;;;17.55;4.93;;;26.50;42.00;;;;;;5072733;28;20025;-53
2022/05/09 09:25:06;;;;;;;12.05;4.10;;;26.30;38.10;;;;;;5072606;28;20119;-48
2022/05/09 09:27:43;;;;;;;11.48;4.55;;;26.40;41.20;;;;;;5072403;28;20527;-50
2022/05/09 09:30:21;;;;;;;14.50;4.90;;;26.60;43.10;;;;;;5070863;28;20119;-55
2022/05/09 09:33:03;;;;;;;12.65;4.13;;;26.70;40.90;;;;;;5054157;28;20052;-45
2022/05/09 09:35:37;;;;;;;8.60;3.88;;;27.10;40.00;;;;;;5072608;28;20031;-57
2022/05/09 09:38:32;;;;;;;13.52;4.35;;;27.20;40.30;;;;;;5072300;28;20029;-50
2022/05/09 09:41:19;;;;;;;14.10;4.50;;;27.00;42.40;;;;;;5071067;28;20035;-59
2022/05/09 09:43:46;;;;;;;13.00;4.60;;;26.70;40.50;;;;;;5070957;28;20035;-52
2022/05/09 09:46:12;;;;;;;7.88;3.53;;;26.20;41.00;;;;;;5072157;28;20036;-59
2022/05/09 09:48:39;;;;;;;15.43;5.20;;;26.20;43.40;;;;;;5071999;28;20028;-53
2022/05/09 09:51:17;;;;;;;12.75;4.72;;;26.00;39.20;;;;;;5071965;28;20036;-57
2022/05/09 09:53:52;;;;;;;13.52;4.78;;;25.80;42.20;;;;;;5071916;28;21086;-52
2022/05/09 09:56:20;;;;;;;12.35;4.78;;;25.80;44.00;;;;;;5071989;28;20481;-57
2022/05/09 09:58:48;;;;;;;12.00;4.70;;;25.40;41.70;;;;;;5071848;28;20119;-54
2022/05/09 10:01:20;;;;;;;12.18;4.32;;;25.40;40.70;;;;;;5071885;28;20017;-57
2022/05/09 10:04:02;;;;;;;12.70;4.78;;;25.50;40.60;;;;;;5075499;28;20043;-49
2022/05/09 10:06:28;;;;;;;12.02;4.30;;;25.50;45.20;;;;;;5090877;28;20119;-37
2022/05/09 10:09:02;;;;;;;12.10;4.85;;;26.00;43.40;;;;;;5092035;28;20146;-57
2022/05/09 10:11:30;;;;;;;8.50;4.22;;;26.00;43.50;;;;;;5092006;28;20028;-50
2022/05/09 10:13:59;;;;;;;13.80;4.70;;;26.20;43.50;;;;;;5090593;28;20044;-56
2022/05/09 10:16:33;;;;;;;11.35;4.35;;;26.60;44.10;;;;;;5091932;28;20472;-60
2022/05/09 10:19:06;;;;;;;11.05;4.10;;;26.90;42.80;;;;;;5090589;28;20040;-60
2022/05/09 10:24:47;;;;;;;9.63;4.00;;;27.00;43.30;;;;;;5075603;28;20062;-39
2022/05/09 10:27:27;;;;;;;7.72;3.95;;;26.90;38.10;;;;;;5091500;28;20028;-38
2022/05/09 10:30:00;;;;;;;10.52;4.75;;;27.10;41.60;;;;;;5091719;28;20035;-39
2022/05/09 10:32:32;;;;;;;9.32;4.00;;;26.90;39.50;;;;;;5091285;28;20044;-46
2022/05/09 10:35:07;;;;;;;9.57;4.20;;;26.80;41.50;;;;;;5091807;28;20104;-42
2022/05/09 10:37:50;;;;;;;10.23;4.68;;;27.10;40.30;;;;;;5091482;28;20021;-40
2022/05/09 10:40:16;;;;;;;11.88;4.18;;;27.20;38.30;;;;;;5091237;28;20021;-38
2022/05/09 10:42:47;;;;;;;10.35;4.40;;;27.50;42.30;;;;;;5090467;28;20024;-38
2022/05/09 10:45:17;;;;;;;11.43;5.05;;;27.30;36.80;;;;;;5090510;28;20435;-44
2022/05/09 10:47:58;;;;;;;10.55;4.00;;;27.20;40.60;;;;;;5091402;28;20031;-40
2022/05/09 10:50:50;;;;;;;10.60;4.05;;;27.20;41.00;;;;;;5091342;28;20028;-52
2022/05/09 10:53:31;;;;;;;9.68;4.35;;;27.00;40.60;;;;;;5090491;28;20051;-51
2022/05/09 10:56:27;;;;;;;9.77;5.00;;;27.10;41.20;;;;;;5069711;28;20040;-44
2022/05/09 10:59:01;;;;;;;10.38;4.45;;;27.20;39.90;;;;;;5070914;28;20028;-53
2022/05/09 11:01:44;;;;;;;10.02;5.57;;;27.40;42.70;;;;;;5089009;28;20103;-49
2022/05/09 11:04:12;;;;;;;9.20;5.57;;;27.30;38.20;;;;;;5091135;28;20024;-48
2022/05/09 11:06:43;;;;;;;9.63;5.25;;;27.10;39.40;;;;;;5091154;28;20032;-54
2022/05/09 11:09:32;;;;;;;10.68;5.45;;;27.10;40.40;;;;;;5091263;28;20023;-58
2022/05/09 11:12:22;;;;;;;11.82;7.07;;;26.80;40.10;;;;;;5091147;28;20024;-52
2022/05/09 11:15:00;;;;;;;11.48;5.63;;;26.20;40.00;;;;;;5091066;28;20042;-53
2022/05/09 11:18:04;;;;;;;9.32;5.50;;;26.00;43.40;;;;;;5091098;28;20028;-57
2022/05/09 11:20:46;;;;;;;9.50;6.20;;;25.50;42.00;;;;;;5082538;28;20032;-47
2022/05/09 11:23:37;;;;;;;11.65;6.00;;;25.40;43.60;;;;;;5091044;28;20039;-52
2022/05/09 11:26:09;;;;;;;11.18;5.90;;;25.30;43.50;;;;;;5089742;28;20016;-50
2022/05/09 11:28:56;;;;;;;11.77;5.65;;;25.40;43.90;;;;;;5089778;28;20059;-54
2022/05/09 11:31:44;;;;;;;12.55;5.47;;;25.30;45.90;;;;;;5090947;28;20024;-54
2022/05/09 11:34:26;;;;;;;10.57;5.45;;;25.20;46.70;;;;;;5090592;28;20040;-58
2022/05/09 11:37:02;;;;;;;10.95;6.20;;;25.40;43.90;;;;;;5090612;28;20028;-48
2022/05/09 11:39:58;;;;;;;11.45;5.90;;;25.40;47.50;;;;;;5092421;28;20031;-55
2022/05/09 11:45:36;;;;;;;13.35;5.45;;;25.20;44.40;;;;;;5094689;28;20022;-53
2022/05/09 11:48:11;;;;;;;8.00;5.28;;;24.80;46.80;;;;;;5089751;28;20149;-54
2022/05/09 11:50:56;;;;;;;10.45;5.45;;;24.80;49.00;;;;;;5093027;28;20028;-50
2022/05/09 11:53:26;;;;;;;10.77;6.07;;;24.90;48.40;;;;;;5094373;28;20047;-49
2022/05/09 11:55:52;;;;;;;11.63;6.43;;;24.80;45.60;;;;;;5094470;28;20096;-55
2022/05/09 11:58:19;;;;;;;10.13;6.30;;;24.60;43.60;;;;;;5078587;28;20040;-55
2022/05/09 12:00:47;;;;;;;8.95;5.70;;;24.40;45.70;;;;;;5074073;28;20099;-55
2022/05/09 12:03:14;;;;;;;9.27;5.70;;;24.30;47.40;;;;;;5075508;28;20480;-50
2022/05/09 12:05:41;;;;;;;10.82;6.65;;;24.10;47.50;;;;;;5074207;28;20054;-55
2022/05/09 12:08:18;;;;;;;12.20;6.07;;;23.70;47.70;;;;;;5093925;28;20434;-50
2022/05/09 12:10:47;;;;;;;10.27;5.72;;;23.70;51.60;;;;;;5093763;28;20028;-54
2022/05/09 12:13:24;;;;;;;10.50;5.80;;;23.80;49.30;;;;;;5093995;28;20058;-48
2022/05/09 12:15:50;;;;;;;15.38;6.30;;;23.80;48.30;;;;;;5093752;28;20314;-57
2022/05/09 12:18:20;;;;;;;13.73;6.78;;;23.90;51.90;;;;;;5094045;28;20028;-52
2022/05/09 12:20:46;;;;;;;12.45;6.40;;;23.80;47.60;;;;;;5094110;28;20077;-60
2022/05/09 12:23:32;;;;;;;11.05;5.75;;;23.60;48.60;;;;;;5093690;28;20024;-55
2022/05/09 12:26:03;;;;;;;9.85;6.25;;;23.70;50.80;;;;;;5093923;28;20032;-52
2022/05/09 12:28:40;;;;;;;11.88;6.32;;;23.70;50.20;;;;;;5094114;28;20032;-54
2022/05/09 12:31:32;;;;;;;12.25;7.00;;;23.50;47.30;;;;;;5093866;28;20020;-51
2022/05/09 12:33:59;;;;;;;12.40;6.80;;;23.70;54.50;;;;;;5093434;28;20131;-53
2022/05/09 12:36:24;;;;;;;11.68;6.35;;;24.20;48.80;;;;;;5094093;28;20032;-48
2022/05/09 12:38:52;;;;;;;12.68;6.30;;;24.40;48.90;;;;;;5093680;28;20473;-54
2022/05/09 12:41:28;;;;;;;12.13;6.38;;;24.20;48.60;;;;;;5093856;28;20031;-52
2022/05/09 12:44:00;;;;;;;13.48;7.20;;;24.00;49.60;;;;;;5093401;28;20039;-47
2022/05/09 12:46:30;;;;;;;9.82;6.78;;;23.70;46.80;;;;;;5093518;28;20126;-56
2022/05/09 12:48:59;;;;;;;12.23;7.18;;;23.50;49.20;;;;;;5093615;28;20024;-56
2022/05/09 12:51:26;;;;;;;;;;;23.20;47.70;;;;;;5093807;28;20028;-47
2022/05/09 12:53:52;;;;;;;13.63;6.68;;;23.00;48.60;;;;;;5093432;28;19955;-57
2022/05/09 12:56:20;;;;;;;12.75;7.13;;;22.90;52.40;;;;;;5093325;28;20070;-58
2022/05/09 12:58:57;;;;;;;11.35;7.03;;;22.90;50.40;;;;;;5093511;28;20028;-61
2022/05/09 13:01:27;;;;;;;11.13;7.22;;;23.10;51.60;;;;;;5093246;28;20051;-55
2022/05/09 13:03:56;;;;;;;12.35;7.28;;;23.20;50.90;;;;;;5093375;28;20048;-59
2022/05/09 13:06:27;;;;;;;12.40;7.18;;;23.30;50.90;;;;;;5093256;28;20024;-49
2022/05/09 13:08:54;;;;;;;13.13;6.55;;;23.20;50.30;;;;;;5093203;28;20024;-48
2022/05/09 13:11:27;;;;;;;12.07;6.90;;;23.20;51.10;;;;;;5093280;28;20075;-50
2022/05/09 13:14:01;;;;;;;11.88;6.78;;;23.20;51.70;;;;;;5093020;28;20061;-43
2022/05/09 13:16:35;;;;;;;10.70;7.05;;;23.30;52.20;;;;;;5093196;28;20027;-57
2022/05/09 13:19:02;;;;;;;10.65;7.05;;;23.40;49.50;;;;;;5092599;28;20038;-43